createdAt,value
2022-08-10T00:01:54.972Z,18.60
2022-08-10T00:04:27.057Z,18.00
2022-08-10T00:06:56.279Z,19.10
2022-08-10T00:09:26.189Z,23.70
2022-08-10T00:11:54.941Z,17.70
2022-08-10T00:14:23.675Z,18.40
2022-08-10T00:16:52.425Z,18.30
2022-08-10T00:19:21.217Z,16.00
2022-08-10T00:21:51.607Z,15.10
2022-08-10T00:24:20.523Z,14.40
2022-08-10T00:27:52.459Z,20.70
2022-08-10T00:29:38.312Z,16.80
2022-08-10T00:32:07.781Z,15.00
2022-08-10T00:34:36.551Z,14.70
2022-08-10T00:37:05.595Z,12.50
2022-08-10T00:39:36.306Z,15.10
2022-08-10T00:42:08.385Z,16.30
2022-08-10T00:44:39.937Z,13.50
2022-08-10T00:47:21.333Z,14.50
2022-08-10T00:49:59.279Z,14.80
2022-08-10T00:52:29.831Z,12.20
2022-08-10T00:54:58.835Z,18.90
2022-08-10T00:57:28.320Z,14.30
2022-08-10T00:59:58.468Z,14.10
2022-08-10T01:02:31.162Z,13.50
2022-08-10T01:05:02.902Z,13.10
2022-08-10T01:07:55.980Z,13.40
2022-08-10T01:10:38.389Z,11.60
2022-08-10T01:13:20.874Z,14.80
2022-08-10T01:15:56.635Z,17.70
2022-08-10T01:18:38.113Z,16.40
2022-08-10T01:21:36.758Z,17.70
2022-08-10T01:24:39.293Z,14.90
2022-08-10T01:27:27.279Z,18.70
2022-08-10T01:30:00.929Z,20.90
2022-08-10T01:32:47.547Z,18.00
2022-08-10T01:35:24.353Z,19.00
2022-08-10T01:38:05.989Z,22.20
2022-08-10T01:40:37.344Z,19.40
2022-08-10T01:43:10.484Z,23.20
2022-08-10T01:45:45.294Z,16.50
2022-08-10T01:48:31.406Z,15.60
2022-08-10T01:51:09.355Z,15.70
2022-08-10T01:53:43.016Z,14.90
2022-08-10T01:56:18.884Z,14.50
2022-08-10T01:58:52.181Z,13.90
2022-08-10T02:01:24.018Z,14.30
2022-08-10T02:04:03.479Z,14.90
2022-08-10T02:06:38.214Z,12.50
2022-08-10T02:09:11.110Z,15.70
2022-08-10T02:12:06.581Z,19.00
2022-08-10T02:14:34.137Z,17.50
2022-08-10T02:17:06.968Z,17.10
2022-08-10T02:19:38.387Z,16.60
2022-08-10T02:22:34.948Z,18.20
2022-08-10T02:25:00.175Z,14.50
2022-08-10T02:27:31.512Z,16.90
2022-08-10T02:30:01.798Z,17.00
2022-08-10T02:32:37.969Z,19.00
2022-08-10T02:35:13.281Z,15.70
2022-08-10T02:37:59.088Z,18.50
2022-08-10T02:45:14.107Z,14.10
2022-08-10T02:45:18.215Z,14.60
2022-08-10T02:46:20.967Z,14.50
2022-08-10T02:49:00.424Z,11.80
2022-08-10T02:52:06.890Z,12.60
2022-08-10T02:54:38.606Z,11.20
2022-08-10T02:57:19.307Z,14.40
2022-08-10T02:59:52.524Z,9.50
2022-08-10T03:02:29.657Z,10.10
2022-08-10T03:05:06.159Z,13.80
2022-08-10T03:07:45.115Z,15.70
2022-08-10T03:10:18.603Z,12.90
2022-08-10T03:12:51.680Z,14.30
2022-08-10T03:15:22.185Z,12.40
2022-08-10T03:17:58.207Z,12.20
2022-08-10T03:20:37.119Z,13.50
2022-08-10T03:25:40.362Z,14.10
2022-08-10T03:28:10.402Z,18.30
2022-08-10T03:30:48.391Z,17.30
2022-08-10T03:33:19.632Z,15.10
2022-08-10T03:36:42.400Z,18.30
2022-08-10T03:38:39.885Z,20.80
2022-08-10T03:41:16.087Z,14.60
2022-08-10T03:43:48.550Z,18.90
2022-08-10T03:46:21.916Z,20.40
2022-08-10T03:48:54.171Z,22.30
2022-08-10T03:51:25.214Z,20.40
2022-08-10T03:54:03.353Z,19.10
2022-08-10T03:56:37.405Z,16.60
2022-08-10T03:59:09.380Z,17.00
2022-08-10T04:02:52.878Z,17.00
2022-08-10T04:04:27.588Z,17.00
2022-08-10T04:06:58.556Z,12.80
2022-08-10T04:09:55.496Z,14.70
2022-08-10T04:12:18.668Z,17.40
2022-08-10T04:14:51.498Z,13.30
2022-08-10T04:18:01.451Z,13.50
2022-08-10T04:20:19.120Z,19.30
2022-08-10T04:22:51.493Z,16.90
2022-08-10T04:25:20.855Z,19.70
2022-08-10T04:27:54.522Z,19.70
2022-08-10T04:30:23.756Z,21.60
2022-08-10T04:32:59.429Z,20.70
2022-08-10T04:35:29.661Z,22.30
2022-08-10T04:38:01.398Z,28.60
2022-08-10T04:40:31.351Z,27.20
2022-08-10T04:43:11.676Z,22.10
2022-08-10T04:45:49.512Z,23.30
2022-08-10T04:48:42.550Z,22.10
2022-08-10T04:51:18.981Z,22.10
2022-08-10T04:54:03.792Z,19.90
2022-08-10T04:56:36.878Z,21.40
2022-08-10T05:02:21.821Z,17.90
2022-08-10T05:04:36.587Z,20.90
2022-08-10T05:07:10.675Z,20.30
2022-08-10T05:10:04.002Z,23.40
2022-08-10T05:12:29.149Z,24.60
2022-08-10T05:14:58.143Z,26.00
2022-08-10T05:17:26.892Z,26.30
2022-08-10T05:20:02.019Z,27.30
2022-08-10T05:22:36.548Z,19.60
2022-08-10T05:25:08.035Z,24.50
2022-08-10T05:27:37.737Z,25.90
2022-08-10T05:30:09.799Z,25.70
2022-08-10T05:32:57.958Z,22.70
2022-08-10T05:36:17.788Z,24.90
2022-08-10T05:39:43.121Z,22.00
2022-08-10T06:00:37.437Z,14.90
2022-08-10T06:10:03.829Z,14.00
2022-08-10T06:12:54.355Z,9.60
2022-08-10T06:16:20.332Z,9.30
2022-08-10T06:18:50.109Z,9.80
2022-08-10T06:21:20.872Z,14.00
2022-08-10T06:23:52.039Z,6.90
2022-08-10T06:26:21.790Z,7.40
2022-08-10T06:29:03.595Z,10.60
2022-08-10T06:31:49.065Z,9.20
2022-08-10T06:34:25.838Z,8.90
2022-08-10T06:36:57.996Z,11.50
2022-08-10T06:39:34.020Z,9.80
2022-08-10T06:42:17.918Z,7.90
2022-08-10T06:44:56.642Z,7.60
2022-08-10T06:47:32.419Z,10.00
2022-08-10T06:50:08.862Z,8.90
2022-08-10T06:52:42.096Z,8.30
2022-08-10T06:55:16.925Z,8.20
2022-08-10T06:58:00.167Z,9.80
2022-08-10T07:00:34.392Z,9.10
2022-08-10T07:03:09.535Z,10.70
2022-08-10T07:05:43.003Z,6.60
2022-08-10T07:08:14.511Z,7.50
2022-08-10T07:10:46.364Z,6.60
2022-08-10T07:14:16.366Z,6.50
2022-08-10T07:16:33.487Z,7.50
2022-08-10T07:19:03.135Z,8.10
2022-08-10T07:21:33.546Z,7.80
2022-08-10T07:25:09.756Z,5.70
2022-08-10T07:27:58.534Z,4.90
2022-08-10T07:30:32.928Z,7.30
2022-08-10T07:33:21.362Z,6.70
2022-08-10T07:36:54.594Z,6.30
2022-08-10T07:40:02.088Z,5.10
2022-08-10T07:42:16.403Z,6.40
2022-08-10T07:44:47.966Z,4.90
2022-08-10T07:47:52.522Z,4.20
2022-08-10T07:50:13.872Z,6.90
2022-08-10T07:52:44.606Z,5.10
2022-08-10T07:55:18.102Z,5.80
2022-08-10T07:57:50.927Z,5.70
2022-08-10T08:00:21.233Z,8.00
2022-08-10T08:02:53.582Z,5.10
2022-08-10T08:05:57.619Z,5.10
2022-08-10T08:08:15.504Z,6.80
2022-08-10T08:10:47.732Z,6.20
2022-08-10T08:13:20.425Z,4.30
2022-08-10T08:16:18.096Z,5.20
2022-08-10T08:18:42.010Z,8.00
2022-08-10T08:24:09.603Z,4.30
2022-08-10T08:24:30.915Z,5.50
2022-08-10T08:27:03.706Z,8.90
2022-08-10T08:29:36.023Z,5.30
2022-08-10T08:32:06.370Z,5.50
2022-08-10T08:34:38.633Z,4.80
2022-08-10T08:37:10.168Z,5.40
2022-08-10T08:39:40.493Z,4.50
2022-08-10T08:42:26.876Z,4.60
2022-08-10T08:45:27.453Z,5.20
2022-08-10T08:48:21.475Z,6.10
2022-08-10T08:51:08.629Z,4.50
2022-08-10T08:54:07.047Z,4.10
2022-08-10T08:56:49.579Z,4.30
2022-08-10T08:59:37.499Z,5.70
2022-08-10T09:02:29.372Z,5.40
2022-08-10T09:05:08.758Z,4.70
2022-08-10T09:08:00.700Z,6.00
2022-08-10T09:10:43.327Z,6.00
2022-08-10T09:13:18.626Z,5.00
2022-08-10T09:16:16.073Z,7.60
2022-08-10T09:18:53.102Z,7.30
2022-08-10T09:21:34.270Z,7.00
2022-08-10T09:24:20.499Z,5.80
2022-08-10T09:26:51.607Z,8.30
2022-08-10T09:29:26.423Z,8.10
2022-08-10T09:42:15.008Z,6.30
2022-08-10T09:50:07.028Z,4.00
2022-08-10T10:03:04.016Z,5.70
2022-08-10T10:06:02.689Z,5.60
2022-08-10T10:18:14.961Z,4.10
2022-08-10T10:25:20.614Z,5.70
2022-08-10T10:38:04.669Z,8.00
2022-08-10T10:42:04.004Z,5.20
2022-08-10T10:45:23.423Z,8.80
2022-08-10T10:48:38.977Z,5.10
2022-08-10T10:51:18.759Z,4.90
2022-08-10T10:53:59.543Z,5.30
2022-08-10T10:56:39.667Z,5.60
2022-08-10T10:59:53.834Z,3.30
2022-08-10T11:02:35.982Z,4.40
2022-08-10T11:05:21.320Z,4.00
2022-08-10T11:07:57.057Z,4.80
2022-08-10T11:10:34.678Z,6.50
2022-08-10T11:14:27.565Z,3.30
2022-08-10T11:16:24.745Z,4.80
2022-08-10T11:19:07.580Z,3.40
2022-08-10T11:21:49.428Z,3.90
2022-08-10T11:24:47.147Z,4.00
2022-08-10T11:27:23.234Z,3.10
2022-08-10T11:30:05.205Z,5.00
2022-08-10T11:32:42.863Z,5.30
2022-08-10T11:35:34.811Z,6.90
2022-08-10T11:38:31.230Z,5.30
2022-08-10T11:42:05.229Z,6.10
2022-08-10T11:44:08.238Z,4.10
2022-08-10T11:46:44.819Z,6.60
2022-08-10T11:49:21.956Z,4.20
2022-08-10T11:51:56.782Z,4.20
2022-08-10T11:54:31.853Z,5.30
2022-08-10T11:57:02.772Z,3.40
2022-08-10T11:59:57.959Z,3.20
2022-08-10T12:02:33.327Z,3.70
2022-08-10T12:05:10.609Z,3.90
2022-08-10T12:08:55.032Z,3.70
2022-08-10T12:10:40.192Z,4.10
2022-08-10T12:13:14.980Z,2.80
2022-08-10T12:15:56.834Z,3.70
2022-08-10T12:18:32.692Z,4.40
2022-08-10T12:21:09.599Z,5.10
2022-08-10T12:24:03.117Z,5.10
2022-08-10T12:26:39.591Z,2.80
2022-08-10T12:29:14.566Z,2.80
2022-08-10T12:31:50.802Z,2.70
2022-08-10T12:34:29.188Z,2.80
2022-08-10T12:37:07.526Z,2.80
2022-08-10T12:39:50.345Z,3.90
2022-08-10T12:42:38.873Z,3.80
2022-08-10T12:45:21.086Z,3.50
2022-08-10T12:47:56.570Z,3.00
2022-08-10T13:00:01.649Z,4.50
2022-08-10T13:08:28.803Z,2.70
2022-08-10T13:20:45.154Z,3.00
2022-08-10T13:28:36.157Z,3.50
2022-08-10T13:33:06.705Z,2.80
2022-08-10T13:39:58.226Z,2.00
2022-08-10T13:42:33.909Z,4.20
2022-08-10T13:45:08.365Z,6.90
2022-08-10T13:47:48.971Z,2.70
2022-08-10T13:50:34.574Z,2.70
2022-08-10T13:53:13.990Z,2.50
2022-08-10T13:55:55.170Z,2.10
2022-08-10T13:58:31.100Z,2.60
2022-08-10T14:05:51.098Z,2.40
2022-08-10T14:08:23.007Z,2.30
2022-08-10T14:11:43.587Z,3.20
2022-08-10T14:28:02.237Z,1.70
2022-08-10T14:30:30.989Z,2.30
2022-08-10T14:33:03.687Z,6.80
2022-08-10T14:36:22.521Z,4.20
2022-08-10T14:38:31.786Z,3.10
2022-08-10T14:41:03.813Z,3.90
2022-08-10T14:43:40.415Z,3.40
2022-08-10T14:46:17.718Z,5.70
2022-08-10T14:48:53.583Z,4.60
2022-08-10T14:51:44.064Z,2.20
2022-08-10T14:54:17.629Z,2.80
2022-08-10T14:56:48.821Z,4.20
2022-08-10T14:59:18.909Z,2.10
2022-08-10T15:02:00.992Z,1.80
2022-08-10T15:04:46.491Z,2.10
2022-08-10T15:07:21.534Z,6.70
2022-08-10T15:10:00.335Z,2.70
2022-08-10T15:12:34.194Z,1.70
2022-08-10T15:15:07.416Z,3.00
2022-08-10T15:17:41.426Z,2.80
2022-08-10T15:20:20.676Z,1.70
2022-08-10T15:22:55.773Z,10.30
2022-08-10T15:25:28.089Z,4.90
2022-08-10T15:28:06.064Z,3.00
2022-08-10T15:30:41.947Z,3.60
2022-08-10T15:34:03.613Z,2.10
2022-08-10T15:36:41.702Z,2.30
2022-08-10T15:40:26.000Z,4.40
2022-08-10T15:42:08.972Z,2.60
2022-08-10T15:44:41.727Z,2.60
2022-08-10T15:47:15.521Z,1.50
2022-08-10T15:49:50.037Z,2.20
2022-08-10T15:52:39.743Z,5.80
2022-08-10T15:55:43.803Z,2.00
2022-08-10T15:58:12.799Z,2.00
2022-08-10T16:00:49.298Z,2.20
2022-08-10T16:03:26.383Z,2.10
2022-08-10T16:10:54.295Z,2.50
2022-08-10T16:18:44.712Z,3.20
2022-08-10T16:29:55.967Z,8.70
2022-08-10T16:33:54.086Z,3.00
2022-08-10T16:45:14.801Z,5.20
2022-08-10T16:52:39.623Z,3.40
2022-08-10T17:08:47.982Z,2.50
2022-08-10T17:20:56.569Z,4.00
2022-08-10T17:28:21.212Z,2.70
2022-08-10T17:31:58.861Z,2.40
2022-08-10T17:35:47.016Z,2.40
2022-08-10T17:47:15.480Z,4.80
2022-08-10T17:54:44.049Z,4.40
2022-08-10T18:11:08.596Z,4.50
2022-08-10T18:37:08.007Z,24.00
2022-08-10T19:52:20.228Z,9.70
2022-08-10T19:55:35.050Z,7.40
2022-08-10T20:25:31.187Z,9.10
2022-08-10T20:46:50.751Z,11.30
2022-08-10T21:04:13.291Z,10.40
2022-08-10T21:11:49.944Z,10.60
2022-08-10T21:37:07.865Z,15.50
2022-08-10T22:02:52.831Z,11.60
2022-08-10T22:11:37.401Z,10.60
2022-08-10T22:50:47.413Z,12.90
2022-08-10T22:54:30.950Z,12.50
2022-08-10T23:14:59.260Z,9.60
2022-08-10T23:22:56.170Z,10.00
2022-08-10T23:27:37.639Z,10.50
2022-08-10T23:32:06.773Z,10.10
2022-08-10T23:36:33.764Z,10.50
